createdAt,value
2019-03-01T00:00:45.073Z,94835.34
2019-03-01T00:03:14.554Z,94831.13
2019-03-01T00:06:13.373Z,94831.28
2019-03-01T00:09:26.030Z,94831.28
2019-03-01T00:12:10.697Z,94826.58
2019-03-01T00:15:16.922Z,94826.53
2019-03-01T00:18:13.338Z,94820.12
2019-03-01T00:21:07.372Z,94813.82
2019-03-01T00:24:15.019Z,94813.82
2019-03-01T00:26:56.663Z,94820.53
2019-03-01T00:30:07.444Z,94812.94
2019-03-01T00:33:07.149Z,94803.45
2019-03-01T00:36:09.618Z,94796.13
2019-03-01T00:38:59.077Z,94800.69
2019-03-01T00:41:46.146Z,94793.55
2019-03-01T00:44:31.008Z,94792.28
2019-03-01T00:47:00.480Z,94784.80
2019-03-01T00:49:32.923Z,94789.06
2019-03-01T00:52:02.614Z,94773.70
2019-03-01T00:54:32.114Z,94776.84
2019-03-01T00:57:01.607Z,94772.66
2019-03-01T00:59:31.072Z,94776.26
2019-03-01T01:02:00.695Z,94776.66
2019-03-01T01:04:30.246Z,94765.28
2019-03-01T01:06:59.719Z,94767.45
2019-03-01T01:09:29.119Z,94766.23
2019-03-01T01:11:58.613Z,94763.37
2019-03-01T01:14:27.992Z,94560.88
2019-03-01T01:16:57.453Z,94583.29
2019-03-01T01:19:26.931Z,94751.88
2019-03-01T01:21:56.432Z,94754.54
2019-03-01T01:24:25.851Z,94750.75
2019-03-01T01:26:55.456Z,94767.26
2019-03-01T01:29:24.869Z,94767.26
2019-03-01T01:31:54.356Z,94757.36
2019-03-01T01:34:23.789Z,94767.38
2019-03-01T01:36:53.202Z,94769.19
2019-03-01T01:39:23.224Z,94755.61
2019-03-01T01:41:52.729Z,94759.75
2019-03-01T01:44:22.157Z,94766.59
2019-03-01T01:46:51.685Z,94756.16
2019-03-01T01:49:21.160Z,94756.16
2019-03-01T01:51:50.539Z,94761.53
2019-03-01T01:54:20.075Z,94757.36
2019-03-01T01:56:49.420Z,94764.33
2019-03-01T01:59:18.791Z,94766.30
2019-03-01T02:01:48.163Z,94766.30
2019-03-01T02:04:17.669Z,94750.70
2019-03-01T02:06:47.103Z,94758.70
2019-03-01T02:09:21.852Z,94768.97
2019-03-01T02:11:51.390Z,94767.06
2019-03-01T02:14:20.779Z,94758.29
2019-03-01T02:16:50.373Z,94758.29
2019-03-01T02:19:19.744Z,94767.38
2019-03-01T02:21:49.181Z,94775.71
2019-03-01T02:24:18.580Z,94767.69
2019-03-01T02:26:47.977Z,94768.64
2019-03-01T02:29:17.470Z,94772.39
2019-03-01T02:31:52.389Z,94758.95
2019-03-01T02:34:21.811Z,94760.99
2019-03-01T02:36:51.266Z,94760.99
2019-03-01T02:39:20.663Z,94753.33
2019-03-01T02:41:50.136Z,94742.98
2019-03-01T02:44:19.541Z,94730.64
2019-03-01T02:46:48.952Z,94746.52
2019-03-01T02:49:18.359Z,94738.25
2019-03-01T02:51:47.728Z,94752.94
2019-03-01T02:54:17.271Z,94751.11
2019-03-01T02:56:46.621Z,94751.11
2019-03-01T02:59:16.074Z,94763.50
2019-03-01T03:01:45.490Z,94762.63
2019-03-01T03:04:14.851Z,94762.63
2019-03-01T03:06:59.112Z,94581.00
2019-03-01T03:09:28.515Z,94762.03
2019-03-01T03:11:57.849Z,94762.03
2019-03-01T03:14:27.295Z,94758.77
2019-03-01T03:16:56.742Z,94765.90
2019-03-01T03:19:26.528Z,94764.24
2019-03-01T03:21:55.965Z,94758.58
2019-03-01T03:24:25.343Z,94772.52
2019-03-01T03:26:54.707Z,94768.19
2019-03-01T03:29:24.174Z,94780.00
2019-03-01T03:31:53.569Z,94776.80
2019-03-01T03:34:22.981Z,94794.97
2019-03-01T03:36:52.438Z,94789.63
2019-03-01T03:39:21.890Z,94796.38
2019-03-01T03:41:51.362Z,94791.29
2019-03-01T03:44:21.025Z,94787.51
2019-03-01T03:46:50.414Z,94779.66
2019-03-01T03:49:19.769Z,94785.13
2019-03-01T03:51:49.226Z,94778.81
2019-03-01T03:54:18.668Z,94771.99
2019-03-01T03:56:48.184Z,94771.99
2019-03-01T03:59:17.707Z,94796.63
2019-03-01T04:01:47.096Z,94782.98
2019-03-01T04:04:16.660Z,94782.98
2019-03-01T04:06:46.256Z,94800.03
2019-03-01T04:09:15.615Z,94780.35
2019-03-01T04:11:45.107Z,94775.55
2019-03-01T04:14:14.461Z,94773.42
2019-03-01T04:16:43.910Z,94776.34
2019-03-01T04:19:13.324Z,94775.17
2019-03-01T04:21:42.714Z,94773.36
2019-03-01T04:24:12.131Z,94767.41
2019-03-01T04:26:41.578Z,94767.41
2019-03-01T04:29:10.998Z,94770.13
2019-03-01T04:31:40.379Z,94767.39
2019-03-01T04:34:09.906Z,94767.70
2019-03-01T04:36:39.278Z,94767.70
2019-03-01T04:39:09.212Z,94774.25
2019-03-01T04:41:38.688Z,94784.42
2019-03-01T04:44:08.078Z,94780.13
2019-03-01T04:46:37.571Z,94779.34
2019-03-01T04:49:07.035Z,94769.08
2019-03-01T04:51:40.037Z,94769.08
2019-03-01T04:54:07.549Z,94776.75
2019-03-01T04:56:37.041Z,94780.58
2019-03-01T04:59:06.497Z,94777.45
2019-03-01T05:01:35.885Z,94777.78
2019-03-01T05:04:05.466Z,94777.27
2019-03-01T05:06:34.815Z,94772.92
2019-03-01T05:09:05.640Z,94780.17
2019-03-01T05:11:35.056Z,94765.39
2019-03-01T05:14:04.583Z,94785.87
2019-03-01T05:16:34.088Z,94789.77
2019-03-01T05:19:03.453Z,94793.23
2019-03-01T05:21:32.837Z,94783.69
2019-03-01T05:24:02.207Z,94793.45
2019-03-01T05:26:31.541Z,94791.73
2019-03-01T05:29:00.937Z,94800.77
2019-03-01T05:31:30.447Z,94784.39
2019-03-01T05:33:59.934Z,94785.10
2019-03-01T05:36:29.373Z,94782.23
2019-03-01T05:38:58.776Z,94792.52
2019-03-01T05:41:28.186Z,94791.92
2019-03-01T05:43:57.559Z,94801.17
2019-03-01T05:46:27.015Z,94796.00
2019-03-01T05:48:56.432Z,94798.61
2019-03-01T05:51:25.849Z,94806.58
2019-03-01T05:53:55.264Z,94795.09
2019-03-01T05:56:24.682Z,94797.69
2019-03-01T05:59:12.117Z,94791.83
2019-03-01T06:02:03.229Z,94803.70
2019-03-01T06:04:40.060Z,94810.79
2019-03-01T06:07:46.398Z,94810.84
2019-03-01T06:10:55.146Z,94802.05
2019-03-01T06:14:00.262Z,94806.89
2019-03-01T06:17:02.477Z,94817.86
2019-03-01T06:19:56.531Z,94819.41
2019-03-01T06:22:51.081Z,94814.56
2019-03-01T06:25:45.710Z,94813.50
2019-03-01T06:28:34.590Z,94810.37
2019-03-01T06:31:29.870Z,94821.34
2019-03-01T06:34:24.386Z,94821.81
2019-03-01T06:37:22.016Z,94818.77
2019-03-01T06:40:19.972Z,94815.55
2019-03-01T06:43:26.385Z,94818.97
2019-03-01T06:46:35.566Z,94818.27
2019-03-01T06:49:13.872Z,94823.17
2019-03-01T06:51:43.435Z,94827.60
2019-03-01T06:54:12.784Z,94824.83
2019-03-01T06:56:42.311Z,94831.65
2019-03-01T06:59:11.753Z,94823.92
2019-03-01T07:01:48.247Z,94830.77
2019-03-01T07:04:18.508Z,94819.75
2019-03-01T07:06:47.956Z,94821.53
2019-03-01T07:09:17.356Z,94819.37
2019-03-01T07:11:46.719Z,94814.89
2019-03-01T07:14:16.176Z,94830.80
2019-03-01T07:16:45.554Z,94813.30
2019-03-01T07:19:15.004Z,94818.24
2019-03-01T07:21:44.903Z,94817.69
2019-03-01T07:24:14.577Z,94825.89
2019-03-01T07:26:44.380Z,94820.31
2019-03-01T07:29:13.781Z,94811.94
2019-03-01T07:31:43.266Z,94815.34
2019-03-01T07:34:12.769Z,94807.62
2019-03-01T07:36:42.206Z,94809.34
2019-03-01T07:39:11.633Z,94819.31
2019-03-01T07:41:41.019Z,94823.27
2019-03-01T07:44:10.485Z,94823.16
2019-03-01T07:46:39.849Z,94803.91
2019-03-01T07:49:09.271Z,94819.91
2019-03-01T07:51:38.674Z,94818.28
2019-03-01T07:54:08.124Z,94815.35
2019-03-01T07:56:39.888Z,94802.15
2019-03-01T07:59:08.864Z,94810.41
2019-03-01T08:01:38.298Z,94795.31
2019-03-01T08:04:07.722Z,94810.80
2019-03-01T08:06:37.072Z,94805.77
2019-03-01T08:09:12.431Z,94805.75
2019-03-01T08:11:41.889Z,94800.72
2019-03-01T08:14:11.293Z,94808.13
2019-03-01T08:16:40.711Z,94801.02
2019-03-01T08:19:10.145Z,94806.75
2019-03-01T08:21:42.696Z,94808.81
2019-03-01T08:24:11.949Z,94814.66
2019-03-01T08:26:41.352Z,94815.22
2019-03-01T08:29:10.737Z,94808.94
2019-03-01T08:31:40.164Z,94813.34
2019-03-01T08:34:09.565Z,94817.59
2019-03-01T08:36:42.445Z,94818.95
2019-03-01T08:39:10.156Z,94821.91
2019-03-01T08:41:39.598Z,94821.65
2019-03-01T08:44:08.978Z,94828.27
2019-03-01T08:46:41.740Z,94830.52
2019-03-01T08:49:10.422Z,94841.03
2019-03-01T08:51:41.036Z,94827.80
2019-03-01T08:54:10.439Z,94836.14
2019-03-01T08:56:39.885Z,94835.08
2019-03-01T08:59:09.359Z,94828.71
2019-03-01T09:01:41.798Z,94841.11
2019-03-01T09:04:14.241Z,94818.60
2019-03-01T09:06:43.780Z,94821.45
2019-03-01T09:09:13.263Z,94822.28
2019-03-01T09:11:44.720Z,94814.61
2019-03-01T09:14:14.534Z,94813.58
2019-03-01T09:16:43.965Z,94813.58
2019-03-01T09:19:13.424Z,94815.34
2019-03-01T09:21:44.638Z,94815.34
2019-03-01T09:24:14.040Z,94818.16
2019-03-01T09:26:43.486Z,94778.53
2019-03-01T09:29:18.279Z,94822.07
2019-03-01T09:31:44.330Z,94819.38
2019-03-01T09:34:13.823Z,94805.48
2019-03-01T09:37:01.303Z,94814.29
2019-03-01T09:39:32.710Z,94813.59
2019-03-01T09:42:06.209Z,94809.70
2019-03-01T09:44:38.021Z,94807.86
2019-03-01T09:47:05.885Z,94811.36
2019-03-01T09:49:35.313Z,94809.69
2019-03-01T09:52:04.933Z,94802.00
2019-03-01T09:54:34.411Z,94795.60
2019-03-01T09:57:03.874Z,94799.70
2019-03-01T09:59:33.614Z,94804.58
2019-03-01T10:02:03.174Z,94803.27
2019-03-01T10:04:32.678Z,94802.43
2019-03-01T10:07:02.220Z,94797.81
2019-03-01T10:09:31.744Z,94799.31
2019-03-01T10:12:01.272Z,94800.56
2019-03-01T10:14:30.806Z,94786.48
2019-03-01T10:17:00.243Z,94773.45
2019-03-01T10:19:29.628Z,94778.30
2019-03-01T10:21:59.018Z,94780.66
2019-03-01T10:24:28.373Z,94774.44
2019-03-01T10:26:57.767Z,94777.78
2019-03-01T10:29:27.199Z,94772.11
2019-03-01T10:31:56.525Z,94769.51
2019-03-01T10:34:25.887Z,94770.10
2019-03-01T10:36:55.282Z,94761.34
2019-03-01T10:39:24.682Z,94759.92
2019-03-01T10:41:54.383Z,94779.09
2019-03-01T10:44:23.907Z,94766.62
2019-03-01T10:46:53.225Z,94759.59
2019-03-01T10:49:22.631Z,94761.53
2019-03-01T10:51:52.030Z,94759.63
2019-03-01T10:54:21.445Z,94745.50
2019-03-01T10:56:50.926Z,94746.94
2019-03-01T10:59:20.348Z,94741.63
2019-03-01T11:01:49.810Z,94740.84
2019-03-01T11:04:19.177Z,94725.61
2019-03-01T11:06:48.742Z,94737.69
2019-03-01T11:09:18.145Z,94735.34
2019-03-01T11:11:47.568Z,94731.05
2019-03-01T11:14:16.903Z,94721.12
2019-03-01T11:16:46.231Z,94721.55
2019-03-01T11:19:15.570Z,94716.94
2019-03-01T11:21:44.908Z,94705.11
2019-03-01T11:24:14.315Z,94708.42
2019-03-01T11:26:45.762Z,94700.05
2019-03-01T11:29:15.158Z,94702.08
2019-03-01T11:31:44.566Z,94697.39
2019-03-01T11:34:13.945Z,94700.42
2019-03-01T11:36:43.348Z,94698.97
2019-03-01T11:39:14.001Z,94706.06
2019-03-01T11:41:46.476Z,94703.23
2019-03-01T11:44:15.885Z,94692.78
2019-03-01T11:46:45.311Z,94689.91
2019-03-01T11:49:14.695Z,94698.10
2019-03-01T11:51:44.058Z,94703.25
2019-03-01T11:54:13.502Z,94692.33
2019-03-01T11:56:42.847Z,94691.95
2019-03-01T11:59:12.207Z,94680.08
2019-03-01T12:01:41.541Z,94691.15
2019-03-01T12:04:11.035Z,94679.23
2019-03-01T12:06:40.464Z,94676.02
2019-03-01T12:09:09.962Z,94679.91
2019-03-01T12:11:39.390Z,94677.67
2019-03-01T12:14:08.769Z,94674.20
2019-03-01T12:16:38.137Z,94668.40
2019-03-01T12:19:07.476Z,94667.02
2019-03-01T12:21:36.835Z,94655.85
2019-03-01T12:24:06.225Z,94665.56
2019-03-01T12:26:35.637Z,94654.64
2019-03-01T12:29:05.170Z,94662.80
2019-03-01T12:31:34.532Z,94655.02
2019-03-01T12:34:03.969Z,94649.34
2019-03-01T12:36:33.347Z,94649.34
2019-03-01T12:39:03.156Z,94645.59
2019-03-01T12:41:32.523Z,94650.47
2019-03-01T12:44:01.871Z,94644.32
2019-03-01T12:46:31.223Z,94650.42
2019-03-01T12:49:00.607Z,94635.98
2019-03-01T12:51:29.986Z,94642.90
2019-03-01T12:53:59.305Z,94631.66
2019-03-01T12:56:28.664Z,94631.75
2019-03-01T12:58:58.002Z,94632.34
2019-03-01T13:01:27.405Z,94627.80
2019-03-01T13:03:56.762Z,94627.80
2019-03-01T13:06:26.120Z,94627.77
2019-03-01T13:08:55.462Z,94627.23
2019-03-01T13:11:24.844Z,94620.44
2019-03-01T13:13:54.514Z,94623.12
2019-03-01T13:16:26.598Z,94613.33
2019-03-01T13:18:55.004Z,94609.06
2019-03-01T13:21:24.348Z,94604.59
2019-03-01T13:23:53.930Z,94605.14
2019-03-01T13:26:23.324Z,94602.06
2019-03-01T13:28:52.660Z,94592.81
2019-03-01T13:31:22.030Z,94594.53
2019-03-01T13:33:51.478Z,94597.14
2019-03-01T13:36:20.869Z,94608.85
2019-03-01T13:38:50.223Z,94607.47
2019-03-01T13:41:19.629Z,94609.22
2019-03-01T13:43:48.992Z,94601.63
2019-03-01T13:46:18.383Z,94602.83
2019-03-01T13:48:50.963Z,94604.39
2019-03-01T13:51:18.964Z,94593.86
2019-03-01T13:53:49.159Z,94596.97
2019-03-01T13:56:18.693Z,94595.62
2019-03-01T13:58:48.040Z,94593.85
2019-03-01T14:01:17.379Z,94586.88
2019-03-01T14:03:46.821Z,94587.63
2019-03-01T14:06:16.286Z,94585.28
2019-03-01T14:08:45.665Z,94577.11
2019-03-01T14:11:18.943Z,94570.91
2019-03-01T14:13:47.830Z,94575.34
2019-03-01T14:16:20.426Z,94569.90
2019-03-01T14:18:49.786Z,94562.12
2019-03-01T14:21:19.159Z,94565.02
2019-03-01T14:23:48.530Z,94566.37
2019-03-01T14:26:18.472Z,94559.58
2019-03-01T14:28:48.797Z,94560.52
2019-03-01T14:31:18.184Z,94568.27
2019-03-01T14:33:47.659Z,94576.42
2019-03-01T14:36:17.166Z,94574.25
2019-03-01T14:38:46.667Z,94573.50
2019-03-01T14:41:16.019Z,94579.49
2019-03-01T14:43:45.416Z,94572.25
2019-03-01T14:46:17.545Z,94578.69
2019-03-01T14:48:46.915Z,94568.36
2019-03-01T14:51:16.500Z,94564.61
2019-03-01T14:53:45.867Z,94566.55
2019-03-01T14:56:27.828Z,94555.43
2019-03-01T14:59:13.384Z,94559.08
2019-03-01T15:02:13.066Z,94557.30
2019-03-01T15:04:42.414Z,94555.55
2019-03-01T15:07:11.778Z,94552.64
2019-03-01T15:09:41.176Z,94556.87
2019-03-01T15:12:10.542Z,94565.73
2019-03-01T15:14:39.986Z,94562.45
2019-03-01T15:17:09.383Z,94560.44
2019-03-01T15:19:41.283Z,94567.23
2019-03-01T15:22:13.165Z,94570.70
2019-03-01T15:24:40.970Z,94561.71
2019-03-01T15:27:10.626Z,94567.94
2019-03-01T15:29:40.016Z,94567.63
2019-03-01T15:32:09.875Z,94564.91
2019-03-01T15:34:39.238Z,94569.50
2019-03-01T15:37:08.597Z,94564.41
2019-03-01T15:39:38.387Z,94563.58
2019-03-01T15:42:09.941Z,94568.02
2019-03-01T15:44:38.955Z,94568.13
2019-03-01T15:47:08.307Z,94574.30
2019-03-01T15:49:37.670Z,94579.67
2019-03-01T15:52:07.033Z,94585.60
2019-03-01T15:54:36.780Z,94587.67
2019-03-01T15:57:06.165Z,94581.25
2019-03-01T15:59:35.573Z,94582.94
2019-03-01T16:02:04.911Z,94580.59
2019-03-01T16:04:34.517Z,94580.84
2019-03-01T16:07:03.949Z,94585.22
2019-03-01T16:09:33.349Z,94591.38
2019-03-01T16:12:02.750Z,94583.16
2019-03-01T16:14:32.493Z,94588.17
2019-03-01T16:17:01.902Z,94587.94
2019-03-01T16:19:31.287Z,94586.84
2019-03-01T16:22:00.703Z,94590.08
2019-03-01T16:24:30.133Z,94595.76
2019-03-01T16:26:59.475Z,94589.68
2019-03-01T16:29:28.865Z,94594.47
2019-03-01T16:31:59.289Z,94604.69
2019-03-01T16:34:28.640Z,94600.81
2019-03-01T16:36:59.018Z,94606.55
2019-03-01T16:39:28.411Z,94605.28
2019-03-01T16:41:58.097Z,94605.91
2019-03-01T16:44:27.438Z,94605.15
2019-03-01T16:46:56.793Z,94603.70
2019-03-01T16:49:27.203Z,94616.61
2019-03-01T16:51:57.213Z,94609.73
2019-03-01T16:54:26.598Z,94611.17
2019-03-01T16:56:55.974Z,94614.98
2019-03-01T16:59:25.410Z,94613.58
2019-03-01T17:01:54.782Z,94614.98
2019-03-01T17:04:27.128Z,94613.94
2019-03-01T17:06:55.365Z,94618.33
2019-03-01T17:09:24.728Z,94616.49
2019-03-01T17:11:54.103Z,94617.16
2019-03-01T17:14:27.511Z,94441.56
2019-03-01T17:17:01.539Z,94618.66
2019-03-01T17:19:31.110Z,94622.53
2019-03-01T17:22:00.488Z,94623.48
2019-03-01T17:24:29.854Z,94620.74
2019-03-01T17:27:15.156Z,94622.66
2019-03-01T17:29:50.592Z,94622.09
2019-03-01T17:32:20.155Z,94625.95
2019-03-01T17:34:49.816Z,94632.95
2019-03-01T17:37:46.058Z,94627.60
2019-03-01T17:40:19.575Z,94633.43
2019-03-01T17:42:49.911Z,94636.78
2019-03-01T17:45:21.198Z,94642.89
2019-03-01T17:47:50.543Z,94643.63
2019-03-01T17:50:20.039Z,94652.87
2019-03-01T17:52:49.379Z,94647.04
2019-03-01T17:55:18.860Z,94643.50
2019-03-01T17:57:50.208Z,94648.73
2019-03-01T18:00:25.326Z,94650.59
2019-03-01T18:02:55.239Z,94649.11
2019-03-01T18:05:24.639Z,94654.09
2019-03-01T18:07:54.038Z,94657.21
2019-03-01T18:10:28.722Z,94659.58
2019-03-01T18:12:57.660Z,94654.17
2019-03-01T18:15:27.112Z,94650.59
2019-03-01T18:17:56.858Z,94643.92
2019-03-01T18:20:26.162Z,94645.27
2019-03-01T18:22:55.566Z,94642.34
2019-03-01T18:25:26.400Z,94644.91
2019-03-01T18:27:56.284Z,94646.68
2019-03-01T18:30:25.837Z,94639.59
2019-03-01T18:32:59.342Z,94641.41
2019-03-01T18:35:28.674Z,94643.27
2019-03-01T18:37:58.077Z,94641.98
2019-03-01T18:40:27.434Z,94647.98
2019-03-01T18:42:57.123Z,94647.89
2019-03-01T18:45:27.864Z,94649.38
2019-03-01T18:47:57.210Z,94649.95
2019-03-01T18:50:31.324Z,94669.59
2019-03-01T18:53:06.118Z,94655.94
2019-03-01T18:55:35.713Z,94655.52
2019-03-01T18:58:38.291Z,94655.15
2019-03-01T19:01:07.705Z,94659.42
2019-03-01T19:03:40.199Z,94652.58
2019-03-01T19:06:08.228Z,94654.58
2019-03-01T19:08:39.677Z,94658.87
2019-03-01T19:11:08.710Z,94650.45
2019-03-01T19:13:38.526Z,94646.77
2019-03-01T19:16:08.428Z,94645.70
2019-03-01T19:18:38.125Z,94646.95
2019-03-01T19:21:07.517Z,94647.55
2019-03-01T19:23:38.070Z,94636.73
2019-03-01T19:26:07.449Z,94647.23
2019-03-01T19:28:36.821Z,94644.48
2019-03-01T19:31:06.187Z,94648.69
2019-03-01T19:33:37.851Z,94655.08
2019-03-01T19:36:06.659Z,94654.69
2019-03-01T19:38:36.043Z,94653.70
2019-03-01T19:41:07.274Z,94653.40
2019-03-01T19:43:36.647Z,94650.47
2019-03-01T19:46:06.081Z,94650.57
2019-03-01T19:48:37.264Z,94648.52
2019-03-01T19:51:06.491Z,94647.25
2019-03-01T19:53:37.476Z,94654.03
2019-03-01T19:56:07.058Z,94654.32
2019-03-01T19:58:36.492Z,94653.13
2019-03-01T20:01:05.854Z,94665.70
2019-03-01T20:03:35.227Z,94656.72
2019-03-01T20:06:07.776Z,94654.08
2019-03-01T20:08:35.728Z,94656.41
2019-03-01T20:11:05.198Z,94656.20
2019-03-01T20:13:34.650Z,94650.69
2019-03-01T20:16:04.448Z,94653.83
2019-03-01T20:18:37.030Z,94654.16
2019-03-01T20:21:09.419Z,94656.95
2019-03-01T20:23:37.529Z,94661.34
2019-03-01T20:26:06.899Z,94662.70
2019-03-01T20:28:36.970Z,94662.94
2019-03-01T20:31:06.692Z,94667.66
2019-03-01T20:33:36.422Z,94661.05
2019-03-01T20:36:08.970Z,94664.52
2019-03-01T20:38:40.083Z,94656.06
2019-03-01T20:41:10.058Z,94654.39
2019-03-01T20:43:41.843Z,94654.51
2019-03-01T20:46:10.566Z,94660.49
2019-03-01T20:48:39.939Z,94654.32
2019-03-01T20:51:09.570Z,94658.89
2019-03-01T20:53:38.920Z,94654.98
2019-03-01T20:56:09.939Z,94653.73
2019-03-01T20:58:40.627Z,94659.73
2019-03-01T21:01:10.013Z,94474.77
2019-03-01T21:03:39.477Z,94651.17
2019-03-01T21:06:08.822Z,94653.61
2019-03-01T21:08:38.147Z,94659.08
2019-03-01T21:11:07.565Z,94653.75
2019-03-01T21:13:36.960Z,94661.80
2019-03-01T21:16:06.373Z,94662.20
2019-03-01T21:18:35.754Z,94664.64
2019-03-01T21:21:05.136Z,94657.48
2019-03-01T21:23:34.538Z,94663.89
2019-03-01T21:26:03.992Z,94663.49
2019-03-01T21:28:33.729Z,94657.52
2019-03-01T21:31:04.511Z,94652.00
2019-03-01T21:33:33.883Z,94645.14
2019-03-01T21:36:03.236Z,94654.24
2019-03-01T21:38:32.587Z,94647.19
2019-03-01T21:41:01.974Z,94652.34
2019-03-01T21:43:33.581Z,94651.76
2019-03-01T21:46:02.534Z,94649.42
2019-03-01T21:48:32.006Z,94652.16
2019-03-01T21:51:01.588Z,94639.55
2019-03-01T21:53:36.420Z,94634.86
2019-03-01T21:56:08.338Z,94633.66
2019-03-01T21:58:38.509Z,94637.63
2019-03-01T22:01:07.413Z,94635.08
2019-03-01T22:03:36.894Z,94626.67
2019-03-01T22:06:06.480Z,94633.05
2019-03-01T22:08:35.847Z,94631.91
2019-03-01T22:11:05.369Z,94633.31
2019-03-01T22:13:35.768Z,94638.39
2019-03-01T22:16:05.892Z,94633.95
2019-03-01T22:18:36.329Z,94629.98
2019-03-01T22:21:05.830Z,94643.51
2019-03-01T22:23:35.232Z,94643.35
2019-03-01T22:26:04.581Z,94637.78
2019-03-01T22:28:36.146Z,94635.22
2019-03-01T22:31:05.050Z,94633.42
2019-03-01T22:33:34.413Z,94634.77
2019-03-01T22:36:03.777Z,94637.90
2019-03-01T22:38:33.132Z,94643.29
2019-03-01T22:41:04.002Z,94642.02
2019-03-01T22:43:33.556Z,94641.25
2019-03-01T22:46:02.878Z,94639.50
2019-03-01T22:48:32.254Z,94633.16
2019-03-01T22:51:01.710Z,94632.27
2019-03-01T22:53:31.116Z,94643.19
2019-03-01T22:56:00.520Z,94635.27
2019-03-01T22:58:32.777Z,94635.67
2019-03-01T23:01:32.691Z,94636.48
2019-03-01T23:04:04.639Z,94636.19
2019-03-01T23:06:34.044Z,94636.30
2019-03-01T23:09:10.366Z,94646.84
2019-03-01T23:11:36.061Z,94635.02
2019-03-01T23:14:05.872Z,94635.83
2019-03-01T23:16:35.214Z,94628.05
2019-03-01T23:19:04.569Z,94640.29
2019-03-01T23:21:35.897Z,94638.23
2019-03-01T23:24:05.094Z,94637.77
2019-03-01T23:26:34.521Z,94639.66
2019-03-01T23:29:03.885Z,94641.24
2019-03-01T23:31:35.608Z,94642.31
2019-03-01T23:34:06.998Z,94644.84
2019-03-01T23:36:35.609Z,94644.20
2019-03-01T23:39:06.077Z,94648.77
2019-03-01T23:41:35.465Z,94646.39
2019-03-01T23:44:06.431Z,94644.77
2019-03-01T23:46:36.088Z,94654.02
2019-03-01T23:49:06.489Z,94655.95
2019-03-01T23:51:36.043Z,94660.79
2019-03-01T23:54:05.735Z,94662.53
2019-03-01T23:56:36.538Z,94653.36
2019-03-01T23:59:05.976Z,94660.52
